Time;durP1;ratioP1;P1;durP2;ratioP2;P2;SDS_P1;SDS_P2;PMS_P1;PMS_P2;Temp;Humidity;BMP_temperature;BMP_pressure;BME280_temperature;BME280_humidity;BME280_pressure;Samples;Min_cycle;Max_cycle;Signal;HPM_P1;HPM_P2
2023/03/01 00:02:07;;;;;;;15.07;12.30;;;2.90;99.90;;;;;;5012334;28;20049;-79
2023/03/01 00:04:35;;;;;;;17.67;11.10;;;3.00;99.90;;;;;;5012432;28;20482;-79
2023/03/01 00:07:01;;;;;;;13.10;10.33;;;3.00;99.90;;;;;;5026231;28;20049;-79
2023/03/01 00:09:27;;;;;;;16.00;12.13;;;3.00;99.90;;;;;;5013682;28;20038;-79
2023/03/01 00:11:53;;;;;;;17.43;11.37;;;3.00;99.90;;;;;;5012471;28;20594;-80
2023/03/01 00:14:19;;;;;;;14.77;12.33;;;3.00;99.90;;;;;;5034954;28;20026;-79
2023/03/01 00:16:46;;;;;;;14.40;11.43;;;3.00;99.90;;;;;;5007175;28;20399;-79
2023/03/01 00:19:16;;;;;;;13.33;10.27;;;2.90;99.90;;;;;;4994434;28;20485;-79
2023/03/01 00:21:42;;;;;;;17.88;12.23;;;2.90;99.90;;;;;;5004835;28;20046;-79
2023/03/01 00:24:09;;;;;;;11.83;9.27;;;2.90;99.90;;;;;;5045343;28;20033;-79
2023/03/01 00:26:35;;;;;;;15.67;10.70;;;2.90;99.90;;;;;;5013448;28;20049;-79
2023/03/01 00:29:01;;;;;;;10.77;8.77;;;2.90;99.90;;;;;;5003625;28;20030;-79
2023/03/01 00:31:29;;;;;;;16.03;11.57;;;2.90;99.90;;;;;;5007353;28;20045;-79
2023/03/01 00:33:56;;;;;;;8.00;6.30;;;2.80;99.90;;;;;;5015746;28;20061;-79
2023/03/01 00:36:23;;;;;;;13.43;10.53;;;2.80;99.90;;;;;;5020127;28;20495;-79
2023/03/01 00:38:49;;;;;;;16.63;12.27;;;2.80;99.90;;;;;;5012430;28;20120;-79
2023/03/01 00:41:16;;;;;;;15.77;11.20;;;2.80;99.90;;;;;;5013517;28;20034;-79
2023/03/01 00:43:42;;;;;;;12.80;10.33;;;2.90;99.90;;;;;;4999332;28;20471;-79
2023/03/01 00:46:13;;;;;;;18.40;11.70;;;2.80;99.90;;;;;;5035743;28;20118;-79
2023/03/01 00:48:39;;;;;;;7.88;7.10;;;2.80;99.90;;;;;;4993781;28;20041;-79
2023/03/01 00:51:09;;;;;;;15.03;11.47;;;2.90;99.90;;;;;;5007861;28;20034;-79
2023/03/01 00:53:35;;;;;;;11.60;8.83;;;2.80;99.90;;;;;;5025724;28;20045;-79
2023/03/01 00:56:02;;;;;;;15.43;11.80;;;2.90;99.90;;;;;;5010896;28;20026;-79
2023/03/01 00:58:28;;;;;;;9.13;7.53;;;2.80;99.90;;;;;;5013182;28;20033;-79
2023/03/01 01:00:54;;;;;;;14.30;11.57;;;2.80;99.90;;;;;;5012936;28;20038;-79
2023/03/01 01:03:21;;;;;;;12.33;9.30;;;2.80;99.90;;;;;;5012279;28;20037;-79
2023/03/01 01:05:47;;;;;;;11.67;8.57;;;2.80;99.90;;;;;;5020491;28;20050;-79
2023/03/01 01:08:13;;;;;;;15.30;12.80;;;2.80;99.90;;;;;;5013047;28;20044;-79
2023/03/01 01:10:39;;;;;;;12.67;10.87;;;2.80;99.90;;;;;;5012935;28;20038;-79
2023/03/01 01:13:05;;;;;;;16.47;11.20;;;2.70;99.90;;;;;;5012591;28;20042;-79
2023/03/01 01:15:34;;;;;;;15.57;11.50;;;2.70;99.90;;;;;;5012568;28;20048;-79
2023/03/01 01:18:00;;;;;;;15.80;10.27;;;2.80;99.90;;;;;;5044684;28;20033;-79
2023/03/01 01:20:26;;;;;;;16.60;10.67;;;2.70;99.90;;;;;;5016148;28;20399;-79
2023/03/01 01:22:53;;;;;;;15.33;11.43;;;2.80;99.90;;;;;;5009777;28;20038;-79
2023/03/01 01:25:19;;;;;;;14.97;10.47;;;2.70;99.90;;;;;;5013071;28;20452;-79
2023/03/01 01:27:45;;;;;;;14.47;11.00;;;2.80;99.90;;;;;;5012627;28;20042;-79
2023/03/01 01:30:11;;;;;;;14.83;11.17;;;2.80;99.90;;;;;;5012367;28;20030;-79
2023/03/01 01:32:38;;;;;;;14.67;11.77;;;2.80;99.90;;;;;;4994218;28;20061;-79
2023/03/01 01:35:04;;;;;;;14.40;11.20;;;2.70;99.90;;;;;;5000896;28;20030;-79
2023/03/01 01:37:33;;;;;;;14.23;11.80;;;2.70;99.90;;;;;;5010447;28;20476;-79
2023/03/01 01:39:59;;;;;;;12.80;10.93;;;2.80;99.90;;;;;;5010274;28;20038;-79
2023/03/01 01:42:26;;;;;;;12.00;10.07;;;2.80;99.90;;;;;;5011447;28;20037;-79
2023/03/01 01:45:26;;;;;;;13.27;10.87;;;2.70;99.90;;;;;;4995080;28;20487;-79
2023/03/01 01:47:53;;;;;;;12.57;10.55;;;2.70;99.90;;;;;;4990510;28;20054;-79
2023/03/01 01:50:19;;;;;;;11.13;8.80;;;2.70;99.90;;;;;;5007674;28;20018;-79
2023/03/01 01:52:46;;;;;;;12.73;10.80;;;2.60;99.90;;;;;;5024386;28;20022;-79
2023/03/01 01:55:15;;;;;;;13.17;11.03;;;2.70;99.90;;;;;;5007028;28;20031;-79
2023/03/01 01:57:45;;;;;;;17.37;10.47;;;2.70;99.90;;;;;;5024748;28;20061;-79
2023/03/01 02:00:13;;;;;;;14.10;11.83;;;2.70;99.90;;;;;;4992462;28;20030;-79
2023/03/01 02:02:39;;;;;;;15.73;11.70;;;2.70;99.90;;;;;;5011671;28;20642;-79
2023/03/01 02:05:20;;;;;;;12.97;10.43;;;2.80;99.90;;;;;;5037409;28;20030;-79
2023/03/01 02:07:47;;;;;;;15.27;11.90;;;2.70;99.90;;;;;;5041551;28;20410;-78
2023/03/01 02:10:13;;;;;;;15.50;11.40;;;2.60;99.90;;;;;;5044228;28;20036;-79
2023/03/01 02:12:39;;;;;;;14.27;11.07;;;2.70;99.90;;;;;;5011901;28;20490;-79
2023/03/01 02:15:05;;;;;;;16.50;11.43;;;2.70;99.90;;;;;;5011823;28;20029;-79
2023/03/01 02:17:31;;;;;;;13.53;9.67;;;2.70;99.90;;;;;;5026569;28;20034;-79
2023/03/01 02:20:13;;;;;;;12.60;10.30;;;2.70;99.90;;;;;;5024033;28;20022;-79
2023/03/01 02:22:39;;;;;;;12.68;10.88;;;2.70;99.90;;;;;;4998081;28;20060;-79
2023/03/01 02:25:23;;;;;;;12.80;10.17;;;2.70;99.90;;;;;;5043804;28;20030;-79
2023/03/01 02:27:51;;;;;;;14.63;11.37;;;2.70;99.90;;;;;;5029849;28;20045;-79
2023/03/01 02:30:19;;;;;;;13.17;10.70;;;2.70;99.90;;;;;;5031092;28;20030;-79
2023/03/01 02:32:45;;;;;;;15.13;12.20;;;2.70;99.90;;;;;;5006990;28;20034;-79
2023/03/01 02:35:13;;;;;;;13.00;11.13;;;2.60;99.90;;;;;;5012334;28;20043;-79
2023/03/01 02:37:39;;;;;;;12.70;11.20;;;2.60;99.90;;;;;;5007004;28;20041;-79
2023/03/01 02:40:11;;;;;;;14.60;11.17;;;2.70;99.90;;;;;;4991188;28;20039;-79
2023/03/01 02:42:41;;;;;;;9.80;8.27;;;2.70;99.90;;;;;;5025876;28;20068;-78
2023/03/01 02:45:08;;;;;;;13.57;11.40;;;2.70;99.90;;;;;;4995645;28;20022;-78
2023/03/01 02:47:34;;;;;;;13.87;11.67;;;2.60;99.90;;;;;;5013628;28;20061;-79
2023/03/01 02:50:00;;;;;;;14.83;12.00;;;2.60;99.90;;;;;;5047275;28;20383;-79
2023/03/01 02:52:32;;;;;;;13.10;11.53;;;2.60;99.90;;;;;;5013585;28;20030;-79
2023/03/01 02:55:08;;;;;;;10.03;8.73;;;2.50;99.90;;;;;;5014173;28;20391;-79
2023/03/01 02:57:35;;;;;;;13.60;10.57;;;2.50;99.90;;;;;;5010332;28;20046;-79
2023/03/01 03:00:06;;;;;;;14.57;10.20;;;2.50;99.90;;;;;;5013483;28;20479;-78
2023/03/01 03:02:35;;;;;;;;;;;2.50;99.90;;;;;;4988694;28;20396;-79
2023/03/01 03:05:13;;;;;;;15.50;11.87;;;2.40;99.90;;;;;;5004951;28;19920;-79
2023/03/01 03:07:41;;;;;;;12.20;10.73;;;2.50;99.90;;;;;;5009263;28;20384;-79
2023/03/01 03:10:14;;;;;;;13.83;11.97;;;2.60;99.90;;;;;;5008682;28;20069;-79
2023/03/01 03:12:40;;;;;;;15.63;12.40;;;2.50;99.90;;;;;;5024882;28;20031;-79
2023/03/01 03:15:09;;;;;;;16.97;12.20;;;2.60;99.90;;;;;;5008436;28;20096;-78
2023/03/01 03:17:38;;;;;;;9.73;7.97;;;2.50;99.90;;;;;;5011999;28;20121;-79
2023/03/01 03:20:05;;;;;;;15.37;11.80;;;2.50;99.90;;;;;;5013531;28;20041;-79
2023/03/01 03:22:33;;;;;;;16.03;11.93;;;2.40;99.90;;;;;;5010888;28;20537;-79
2023/03/01 03:24:59;;;;;;;11.20;9.37;;;2.50;99.90;;;;;;4997917;28;20049;-78
2023/03/01 03:27:26;;;;;;;9.20;8.20;;;2.50;99.90;;;;;;5012039;28;20050;-79
2023/03/01 03:29:52;;;;;;;15.40;11.60;;;2.40;99.90;;;;;;5011671;28;20037;-79
2023/03/01 03:32:18;;;;;;;13.43;10.77;;;2.40;99.90;;;;;;5010501;28;20030;-79
2023/03/01 03:34:44;;;;;;;14.03;11.33;;;2.40;99.90;;;;;;5019666;28;20045;-79
2023/03/01 03:38:01;;;;;;;11.53;9.27;;;2.40;99.90;;;;;;5012665;28;20049;-78
2023/03/01 03:39:56;;;;;;;12.80;10.07;;;2.40;99.90;;;;;;5013484;28;20415;-78
2023/03/01 03:42:22;;;;;;;14.43;10.23;;;2.30;99.90;;;;;;5046753;28;20030;-78
2023/03/01 03:44:49;;;;;;;12.40;10.97;;;2.30;99.90;;;;;;5013927;28;20459;-79
2023/03/01 03:47:15;;;;;;;9.60;8.60;;;2.30;99.90;;;;;;5013901;28;20061;-79
2023/03/01 03:49:41;;;;;;;10.30;8.67;;;2.20;99.90;;;;;;5014177;28;20384;-79
2023/03/01 03:52:13;;;;;;;5.80;5.37;;;2.20;99.90;;;;;;5009610;28;20046;-79
2023/03/01 03:54:40;;;;;;;7.87;7.10;;;2.10;99.90;;;;;;4998197;28;20026;-79
2023/03/01 03:57:06;;;;;;;13.67;10.67;;;2.10;99.90;;;;;;5046301;28;20033;-79
2023/03/01 03:59:33;;;;;;;9.90;8.90;;;2.10;99.90;;;;;;5013966;28;20036;-79
2023/03/01 04:01:59;;;;;;;10.13;7.10;;;2.10;99.90;;;;;;5013409;28;20049;-79
2023/03/01 04:04:25;;;;;;;10.93;8.97;;;2.00;99.90;;;;;;5012782;28;20044;-79
2023/03/01 04:06:51;;;;;;;8.10;6.70;;;2.00;99.90;;;;;;4994620;28;20051;-78
2023/03/01 04:09:17;;;;;;;8.43;7.43;;;2.00;99.90;;;;;;5024926;28;20030;-78
2023/03/01 04:11:44;;;;;;;11.53;9.87;;;2.00;99.90;;;;;;4992691;28;20054;-78
2023/03/01 04:14:10;;;;;;;13.03;10.13;;;2.00;99.90;;;;;;5013003;28;20045;-78
2023/03/01 04:16:36;;;;;;;8.33;7.47;;;1.90;99.90;;;;;;5044368;28;20483;-78
2023/03/01 04:19:02;;;;;;;11.47;9.00;;;1.80;99.90;;;;;;5013590;28;20030;-78
2023/03/01 04:21:28;;;;;;;15.00;10.60;;;1.80;99.90;;;;;;5006242;28;20057;-78
2023/03/01 04:23:54;;;;;;;10.63;7.30;;;1.80;99.90;;;;;;5012254;28;20429;-78
2023/03/01 04:26:20;;;;;;;7.57;6.77;;;1.70;99.90;;;;;;5011290;28;20050;-78
2023/03/01 04:28:49;;;;;;;14.87;11.07;;;1.70;99.90;;;;;;5012153;28;20042;-78
2023/03/01 04:31:18;;;;;;;12.93;10.40;;;1.70;99.90;;;;;;5012129;28;20034;-78
2023/03/01 04:33:51;;;;;;;13.13;10.10;;;1.80;99.90;;;;;;5013237;28;20056;-78
2023/03/01 04:36:18;;;;;;;14.40;11.00;;;1.70;99.90;;;;;;5033464;28;20036;-79
2023/03/01 04:38:47;;;;;;;11.43;8.83;;;1.80;99.90;;;;;;5016585;28;20058;-78
2023/03/01 04:41:15;;;;;;;11.23;9.63;;;1.70;99.90;;;;;;5030888;28;20042;-78
2023/03/01 04:43:41;;;;;;;13.80;10.20;;;1.60;99.90;;;;;;5006479;28;20038;-78
2023/03/01 04:46:09;;;;;;;10.90;8.50;;;1.70;99.90;;;;;;5012848;28;20030;-79
2023/03/01 04:48:36;;;;;;;7.50;6.80;;;1.60;99.90;;;;;;5012563;28;20041;-78
2023/03/01 04:51:02;;;;;;;11.93;9.77;;;1.60;99.90;;;;;;5010878;28;20036;-78
2023/03/01 04:53:29;;;;;;;8.37;6.50;;;1.50;99.90;;;;;;5015971;28;20046;-78
2023/03/01 04:55:55;;;;;;;11.37;9.67;;;1.60;99.90;;;;;;4993140;28;20118;-78
2023/03/01 04:58:23;;;;;;;9.67;8.67;;;1.60;99.90;;;;;;5024939;28;20042;-78
2023/03/01 05:00:49;;;;;;;6.80;5.70;;;1.60;99.90;;;;;;4993315;28;20037;-78
2023/03/01 05:03:17;;;;;;;11.07;9.53;;;1.60;99.90;;;;;;5024162;28;20031;-78
2023/03/01 05:05:45;;;;;;;16.50;11.33;;;1.60;99.90;;;;;;4997462;28;20041;-78
2023/03/01 05:08:17;;;;;;;13.27;10.17;;;1.60;99.90;;;;;;5012089;28;20046;-78
2023/03/01 05:10:50;;;;;;;11.33;7.77;;;1.70;99.90;;;;;;5012589;28;20030;-78
2023/03/01 05:13:20;;;;;;;11.73;10.27;;;1.60;99.90;;;;;;5012132;28;20037;-78
2023/03/01 05:16:00;;;;;;;13.82;9.93;;;1.60;99.90;;;;;;5041757;28;20049;-78
2023/03/01 05:18:27;;;;;;;13.80;10.83;;;1.60;99.90;;;;;;5010816;28;20053;-79
2023/03/01 05:20:56;;;;;;;14.20;10.90;;;1.60;99.90;;;;;;5008402;28;20406;-78
2023/03/01 05:23:25;;;;;;;11.97;9.60;;;1.60;99.90;;;;;;5042414;28;20052;-78
2023/03/01 05:25:52;;;;;;;12.70;10.13;;;1.60;99.90;;;;;;5026244;28;20029;-79
2023/03/01 05:28:19;;;;;;;14.17;10.43;;;1.60;99.90;;;;;;5012429;28;20044;-78
2023/03/01 05:30:45;;;;;;;10.50;8.03;;;1.60;99.90;;;;;;5011377;28;20038;-78
2023/03/01 05:33:14;;;;;;;15.93;10.33;;;1.60;99.90;;;;;;5011450;28;20041;-78
2023/03/01 05:35:43;;;;;;;14.70;11.00;;;1.70;99.90;;;;;;5016983;28;20036;-78
2023/03/01 05:38:13;;;;;;;12.13;10.63;;;1.70;99.90;;;;;;5012557;28;20037;-79
2023/03/01 05:40:40;;;;;;;14.87;11.27;;;1.70;99.90;;;;;;5027121;28;20034;-78
2023/03/01 05:43:07;;;;;;;14.83;10.80;;;1.70;99.90;;;;;;5012329;28;20098;-78
2023/03/01 05:45:33;;;;;;;15.37;11.97;;;1.80;99.90;;;;;;5012030;28;20030;-79
2023/03/01 05:47:59;;;;;;;20.20;12.37;;;1.70;99.90;;;;;;5012441;28;20391;-78
2023/03/01 05:50:29;;;;;;;13.63;11.30;;;1.70;99.90;;;;;;5010507;28;20471;-79
2023/03/01 05:53:05;;;;;;;12.68;10.80;;;1.80;99.90;;;;;;5012013;28;20072;-78
2023/03/01 05:55:31;;;;;;;16.33;10.20;;;1.80;99.90;;;;;;5041288;28;20475;-78
2023/03/01 05:58:01;;;;;;;18.37;11.17;;;1.70;99.90;;;;;;5044046;28;20030;-78
2023/03/01 06:00:28;;;;;;;16.90;11.33;;;1.70;99.90;;;;;;5012374;28;20041;-78
2023/03/01 06:02:54;;;;;;;15.20;11.17;;;1.70;99.90;;;;;;5012153;28;20030;-78
2023/03/01 06:05:20;;;;;;;14.63;11.27;;;1.70;99.90;;;;;;5008592;28;20057;-78
2023/03/01 06:07:46;;;;;;;13.10;10.27;;;1.80;99.90;;;;;;5024099;28;20042;-79
2023/03/01 06:10:13;;;;;;;16.83;11.23;;;1.70;99.90;;;;;;4994191;28;20041;-82
2023/03/01 06:12:40;;;;;;;14.43;11.03;;;1.60;99.90;;;;;;5011927;28;20030;-78
2023/03/01 06:15:07;;;;;;;14.47;11.43;;;1.60;99.90;;;;;;5011578;28;20026;-78
2023/03/01 06:17:37;;;;;;;12.83;11.40;;;1.70;99.90;;;;;;5012685;28;20026;-78
2023/03/01 06:20:14;;;;;;;13.23;10.70;;;1.60;99.90;;;;;;5010901;28;20423;-78
2023/03/01 06:22:40;;;;;;;18.67;11.93;;;1.60;99.90;;;;;;5016850;28;20068;-79
2023/03/01 06:25:07;;;;;;;6.67;6.07;;;1.70;99.90;;;;;;5019656;28;20042;-78
2023/03/01 06:27:33;;;;;;;13.37;11.37;;;1.50;99.90;;;;;;5034124;28;20048;-78
2023/03/01 06:29:59;;;;;;;13.93;11.20;;;1.50;99.90;;;;;;5034416;28;20037;-78
2023/03/01 06:32:25;;;;;;;16.40;11.23;;;1.50;99.90;;;;;;5035068;28;20040;-82
2023/03/01 06:34:52;;;;;;;16.50;11.00;;;1.50;99.90;;;;;;5023839;28;20038;-80
2023/03/01 06:37:18;;;;;;;13.27;10.23;;;1.50;99.90;;;;;;5014144;28;20030;-78
2023/03/01 06:39:44;;;;;;;15.03;11.03;;;1.40;99.90;;;;;;5042592;28;20053;-78
2023/03/01 06:42:10;;;;;;;13.30;10.07;;;1.40;99.90;;;;;;5030863;28;20038;-79
2023/03/01 06:44:36;;;;;;;14.73;9.63;;;1.30;99.90;;;;;;5015105;28;20041;-77
2023/03/01 06:47:03;;;;;;;16.13;10.83;;;1.30;99.90;;;;;;5014222;28;20049;-78
2023/03/01 06:49:30;;;;;;;15.70;10.87;;;1.30;99.90;;;;;;5030835;28;20026;-78
2023/03/01 06:51:56;;;;;;;15.93;11.53;;;1.20;99.90;;;;;;5025993;28;20044;-79
2023/03/01 06:54:22;;;;;;;15.67;11.00;;;1.20;99.90;;;;;;5036653;28;20500;-78
2023/03/01 06:56:49;;;;;;;15.17;11.43;;;1.20;99.90;;;;;;5026000;28;20386;-78
2023/03/01 06:59:15;;;;;;;15.43;11.80;;;1.20;99.90;;;;;;5023050;28;20038;-78
2023/03/01 07:01:42;;;;;;;19.47;11.20;;;1.30;99.90;;;;;;5014489;28;20049;-78
2023/03/01 07:04:08;;;;;;;13.50;10.53;;;1.30;99.90;;;;;;5015070;28;20025;-79
2023/03/01 07:06:34;;;;;;;14.57;9.13;;;1.30;99.90;;;;;;5013021;28;20033;-80
2023/03/01 07:09:00;;;;;;;11.90;9.93;;;1.30;99.90;;;;;;5038453;28;20053;-79
2023/03/01 07:11:26;;;;;;;15.83;11.27;;;1.20;99.90;;;;;;5030030;28;20065;-80
2023/03/01 07:13:52;;;;;;;12.50;9.47;;;1.20;99.90;;;;;;5046923;28;20376;-79
2023/03/01 07:16:20;;;;;;;11.03;9.23;;;1.20;99.90;;;;;;5012242;28;20041;-79
2023/03/01 07:18:46;;;;;;;11.23;7.03;;;1.20;99.90;;;;;;5012789;28;20037;-80
2023/03/01 07:21:13;;;;;;;17.40;10.23;;;1.10;99.90;;;;;;5029575;28;20376;-79
2023/03/01 07:23:39;;;;;;;15.10;11.17;;;1.10;99.90;;;;;;5045641;28;20372;-79
2023/03/01 07:26:05;;;;;;;13.67;10.80;;;1.10;99.90;;;;;;5014783;28;20042;-80
2023/03/01 07:28:35;;;;;;;17.83;11.47;;;1.10;99.90;;;;;;5020218;28;20355;-80
2023/03/01 07:31:02;;;;;;;11.90;8.25;;;1.20;99.90;;;;;;5027583;28;20038;-79
2023/03/01 07:33:28;;;;;;;17.37;11.00;;;1.20;99.90;;;;;;5033512;28;20030;-78
2023/03/01 07:35:58;;;;;;;11.73;10.50;;;1.20;99.90;;;;;;5017222;28;20025;-79
2023/03/01 07:38:25;;;;;;;10.43;7.77;;;1.30;99.90;;;;;;5010134;28;20030;-80
2023/03/01 07:40:51;;;;;;;15.30;11.10;;;1.20;99.90;;;;;;5011404;28;20018;-80
2023/03/01 07:43:17;;;;;;;5.90;5.27;;;1.20;99.90;;;;;;5046265;28;20026;-80
2023/03/01 07:45:43;;;;;;;16.70;12.13;;;1.30;99.90;;;;;;5007638;28;20034;-79
2023/03/01 07:48:09;;;;;;;14.33;10.73;;;1.30;99.90;;;;;;5009752;28;20034;-80
2023/03/01 07:50:35;;;;;;;14.97;9.70;;;1.30;99.90;;;;;;4993990;28;20034;-79
2023/03/01 07:53:02;;;;;;;10.37;8.03;;;1.50;99.90;;;;;;4989644;28;20509;-82
2023/03/01 07:55:28;;;;;;;17.30;12.13;;;1.60;99.90;;;;;;4993994;28;20046;-86
2023/03/01 07:57:54;;;;;;;12.60;9.87;;;1.80;99.90;;;;;;5010871;28;20041;-81
2023/03/01 08:00:20;;;;;;;10.17;9.10;;;1.90;99.90;;;;;;5013179;28;20030;-85
2023/03/01 08:02:46;;;;;;;14.47;10.43;;;2.00;99.90;;;;;;5012821;28;20372;-80
2023/03/01 08:05:13;;;;;;;12.47;11.13;;;2.10;99.90;;;;;;5013447;28;20030;-81
2023/03/01 08:07:39;;;;;;;16.00;11.80;;;2.30;99.90;;;;;;5042008;28;20053;-84
2023/03/01 08:10:05;;;;;;;13.17;10.10;;;2.50;99.90;;;;;;5043801;28;20022;-82
2023/03/01 08:12:32;;;;;;;47.20;11.57;;;2.80;99.90;;;;;;5029124;28;20032;-81
2023/03/01 08:14:58;;;;;;;116.93;19.43;;;3.30;99.90;;;;;;5013312;28;20030;-81
2023/03/01 08:17:24;;;;;;;53.30;12.93;;;3.80;99.90;;;;;;4976303;28;20042;-82
2023/03/01 08:19:50;;;;;;;23.93;11.13;;;4.00;99.90;;;;;;4994153;28;20030;-83
2023/03/01 08:22:16;;;;;;;36.80;14.17;;;4.00;99.90;;;;;;4993431;28;20117;-83
2023/03/01 08:24:42;;;;;;;23.03;12.83;;;4.10;99.90;;;;;;5033934;28;20035;-82
2023/03/01 08:27:08;;;;;;;20.17;9.77;;;4.30;99.90;;;;;;5009116;28;20172;-84
2023/03/01 08:29:34;;;;;;;15.17;10.93;;;4.30;99.90;;;;;;5026041;28;20041;-84
2023/03/01 08:32:00;;;;;;;11.83;8.70;;;4.30;99.90;;;;;;5025570;28;20476;-84
2023/03/01 08:34:27;;;;;;;29.63;6.57;;;4.50;99.90;;;;;;5006407;28;20044;-85
2023/03/01 08:36:53;;;;;;;20.27;12.63;;;4.70;99.90;;;;;;5032156;28;20466;-83
2023/03/01 08:39:19;;;;;;;15.33;9.93;;;4.60;99.90;;;;;;5009593;28;20031;-83
2023/03/01 08:41:46;;;;;;;13.67;11.80;;;4.50;99.90;;;;;;5024236;28;20501;-83
2023/03/01 08:44:13;;;;;;;11.90;8.60;;;4.90;99.90;;;;;;5025602;28;20065;-82
2023/03/01 08:46:40;;;;;;;12.87;9.77;;;4.90;99.90;;;;;;5024731;28;20038;-82
2023/03/01 08:49:14;;;;;;;17.03;13.63;;;4.80;99.90;;;;;;4993276;28;20475;-82
2023/03/01 08:51:41;;;;;;;12.70;9.00;;;5.10;99.90;;;;;;5024175;28;20034;-82
2023/03/01 08:54:10;;;;;;;9.93;8.70;;;5.30;99.90;;;;;;5026385;28;20483;-83
2023/03/01 08:56:37;;;;;;;10.93;8.60;;;5.10;99.90;;;;;;5019734;28;20018;-85
2023/03/01 08:59:03;;;;;;;11.13;10.00;;;4.90;99.90;;;;;;5008319;28;20026;-83
2023/03/01 09:01:29;;;;;;;17.03;11.63;;;4.80;99.90;;;;;;4993155;28;20039;-84
2023/03/01 09:03:55;;;;;;;13.17;9.87;;;4.60;99.90;;;;;;4993449;28;20361;-83
2023/03/01 09:06:21;;;;;;;10.20;7.63;;;4.70;99.90;;;;;;4976389;28;20400;-83
2023/03/01 09:08:48;;;;;;;9.37;8.43;;;4.60;99.90;;;;;;5002287;28;20053;-83
2023/03/01 09:11:19;;;;;;;7.43;6.77;;;4.60;99.90;;;;;;5011663;28;20034;-84
2023/03/01 09:13:46;;;;;;;10.27;8.68;;;4.60;99.90;;;;;;5011123;28;20026;-84
2023/03/01 09:16:13;;;;;;;13.57;10.30;;;4.60;99.90;;;;;;5043908;28;20034;-84
2023/03/01 09:18:40;;;;;;;17.70;13.20;;;4.70;99.90;;;;;;5044583;28;20041;-84
2023/03/01 09:21:16;;;;;;;10.10;9.03;;;4.90;99.90;;;;;;5012163;28;20042;-84
2023/03/01 09:23:43;;;;;;;16.97;12.50;;;5.10;99.90;;;;;;5010678;28;20391;-88
2023/03/01 09:26:16;;;;;;;13.40;12.20;;;5.30;99.90;;;;;;5027886;28;20029;-82
2023/03/01 09:28:42;;;;;;;72.87;68.07;;;5.80;99.90;;;;;;5015663;28;20050;-83
2023/03/01 09:31:08;;;;;;;33.40;30.57;;;5.80;99.90;;;;;;5001754;28;20038;-85
2023/03/01 09:33:34;;;;;;;8.73;7.80;;;5.80;99.90;;;;;;5003887;28;20060;-83
2023/03/01 09:36:04;;;;;;;9.48;8.52;;;5.90;99.90;;;;;;5013654;28;20498;-83
2023/03/01 09:38:30;;;;;;;9.33;8.43;;;6.00;99.90;;;;;;4995521;28;20030;-83
2023/03/01 09:40:56;;;;;;;15.88;12.88;;;6.20;99.90;;;;;;5020317;28;20038;-83
2023/03/01 09:43:48;;;;;;;10.73;8.60;;;6.30;99.90;;;;;;5027738;28;20034;-83
2023/03/01 09:46:16;;;;;;;14.60;12.30;;;6.40;99.90;;;;;;5043871;28;20038;-82
2023/03/01 09:49:07;;;;;;;8.50;7.63;;;6.20;99.90;;;;;;5010804;28;20042;-83
2023/03/01 09:51:34;;;;;;;13.57;11.70;;;6.20;99.90;;;;;;5008892;28;20026;-82
2023/03/01 09:54:04;;;;;;;15.17;10.60;;;6.50;99.90;;;;;;5045356;28;20486;-82
2023/03/01 09:56:37;;;;;;;9.27;8.30;;;6.60;99.90;;;;;;4998399;28;20034;-83
2023/03/01 09:59:18;;;;;;;8.23;7.07;;;6.40;99.90;;;;;;5015204;28;20054;-82
2023/03/01 10:02:29;;;;;;;12.43;10.40;;;6.30;99.90;;;;;;4995874;28;20039;-83
2023/03/01 10:05:10;;;;;;;16.65;11.82;;;6.50;99.90;;;;;;5014752;28;20025;-82
2023/03/01 10:07:39;;;;;;;10.18;8.93;;;6.60;99.90;;;;;;5023951;28;20037;-82
2023/03/01 10:10:07;;;;;;;12.60;10.37;;;6.50;99.90;;;;;;5011316;28;20049;-83
2023/03/01 10:12:35;;;;;;;16.10;12.93;;;6.30;99.90;;;;;;5037420;28;20482;-84
2023/03/01 10:15:10;;;;;;;15.33;12.70;;;6.40;99.90;;;;;;5023249;28;20342;-87
2023/03/01 10:18:17;;;;;;;13.20;11.80;;;6.70;99.90;;;;;;5004233;28;20038;-87
2023/03/01 10:20:54;;;;;;;11.73;10.63;;;6.90;99.90;;;;;;5011569;28;20418;-86
2023/03/01 10:23:20;;;;;;;10.20;9.00;;;7.00;99.90;;;;;;5038047;28;20033;-86
2023/03/01 10:26:11;;;;;;;16.85;10.75;;;7.00;99.90;;;;;;5024808;28;20030;-86
2023/03/01 10:28:46;;;;;;;14.38;12.60;;;6.90;99.90;;;;;;5005428;28;20058;-86
2023/03/01 10:31:18;;;;;;;12.18;9.85;;;7.10;99.90;;;;;;5009706;28;20479;-85
2023/03/01 10:33:44;;;;;;;9.68;8.60;;;7.30;99.20;;;;;;5006327;28;20049;-87
2023/03/01 10:36:10;;;;;;;9.95;8.52;;;7.20;98.80;;;;;;4993302;28;20045;-86
2023/03/01 10:38:52;;;;;;;15.00;12.75;;;7.10;99.20;;;;;;4997289;28;20636;-87
2023/03/01 10:41:18;;;;;;;10.35;9.32;;;7.00;99.10;;;;;;5014477;28;20029;-88
2023/03/01 10:43:45;;;;;;;14.95;12.48;;;7.00;99.00;;;;;;5011065;28;20037;-87
2023/03/01 10:46:31;;;;;;;11.75;10.55;;;7.10;98.80;;;;;;5013199;28;20038;-86
2023/03/01 10:49:16;;;;;;;10.07;9.02;;;7.30;98.60;;;;;;5010819;28;20057;-87
2023/03/01 10:51:43;;;;;;;13.00;10.77;;;7.30;98.40;;;;;;5006063;28;20034;-86
2023/03/01 10:54:36;;;;;;;14.75;13.30;;;7.40;98.40;;;;;;4987535;28;20041;-86
2023/03/01 10:57:04;;;;;;;15.27;13.50;;;7.50;98.60;;;;;;5002893;28;20499;-86
2023/03/01 10:59:39;;;;;;;13.95;12.50;;;7.60;98.00;;;;;;5002699;28;20037;-85
2023/03/01 11:02:33;;;;;;;13.07;10.98;;;7.70;97.80;;;;;;4997678;28;20042;-83
2023/03/01 11:05:20;;;;;;;10.05;9.07;;;7.80;97.80;;;;;;4978568;28;20037;-84
2023/03/01 11:07:48;;;;;;;15.18;12.05;;;7.50;97.90;;;;;;5017338;28;20046;-82
2023/03/01 11:10:21;;;;;;;8.73;7.90;;;7.60;98.50;;;;;;5012694;28;20030;-84
2023/03/01 11:12:47;;;;;;;15.55;12.70;;;7.70;97.80;;;;;;4994538;28;20026;-82
2023/03/01 11:15:39;;;;;;;15.80;13.48;;;7.70;98.00;;;;;;5009131;28;20037;-82
2023/03/01 11:18:05;;;;;;;15.68;9.38;;;7.60;97.80;;;;;;5008507;28;20042;-82
2023/03/01 11:20:35;;;;;;;18.90;13.00;;;7.70;97.20;;;;;;4990514;28;20038;-83
2023/03/01 11:23:08;;;;;;;15.73;10.68;;;7.80;97.10;;;;;;5018391;28;20041;-82
2023/03/01 11:25:40;;;;;;;10.50;9.48;;;7.70;96.90;;;;;;4989235;28;20050;-84
2023/03/01 11:28:06;;;;;;;;;;;7.70;96.80;;;;;;5012374;28;20041;-82
2023/03/01 11:31:01;;;;;;;11.60;10.38;;;7.60;96.90;;;;;;4993041;28;19940;-82
2023/03/01 11:33:48;;;;;;;9.38;8.43;;;7.80;97.20;;;;;;4996400;28;20038;-81
2023/03/01 11:36:20;;;;;;;13.27;10.90;;;8.00;96.70;;;;;;5026304;28;20030;-83
2023/03/01 11:38:46;;;;;;;18.77;14.60;;;8.10;96.70;;;;;;4993272;28;20033;-83
2023/03/01 11:41:21;;;;;;;16.67;13.43;;;8.10;96.50;;;;;;5026073;28;20467;-84
2023/03/01 11:44:00;;;;;;;11.90;9.63;;;8.20;95.80;;;;;;5029987;28;20037;-82
2023/03/01 11:46:32;;;;;;;12.05;10.85;;;8.20;96.00;;;;;;5021541;28;20046;-84
2023/03/01 11:49:31;;;;;;;18.20;14.90;;;8.00;96.00;;;;;;5003825;28;20038;-83
2023/03/01 11:52:03;;;;;;;10.73;9.70;;;8.20;96.30;;;;;;5014846;28;20041;-83
2023/03/01 11:55:09;;;;;;;16.23;13.88;;;8.40;95.80;;;;;;5006628;28;20042;-84
2023/03/01 11:57:53;;;;;;;17.67;13.10;;;8.20;95.70;;;;;;5005263;28;20034;-84
2023/03/01 12:00:19;;;;;;;10.10;9.02;;;8.30;95.60;;;;;;5010586;28;20045;-84
2023/03/01 12:03:00;;;;;;;15.45;12.80;;;8.40;95.40;;;;;;5007527;28;20483;-85
2023/03/01 12:05:54;;;;;;;17.25;15.23;;;8.40;95.30;;;;;;5007642;28;20072;-85
2023/03/01 12:08:49;;;;;;;17.15;15.23;;;8.60;95.20;;;;;;4990246;28;20065;-86
2023/03/01 12:11:49;;;;;;;10.90;9.80;;;8.70;95.10;;;;;;4986255;28;20054;-86
2023/03/01 12:14:37;;;;;;;16.50;14.77;;;8.30;95.30;;;;;;4985245;28;20038;-86
2023/03/01 12:17:34;;;;;;;10.85;9.45;;;8.50;95.40;;;;;;5009558;28;20415;-85
2023/03/01 12:20:09;;;;;;;14.60;12.95;;;8.50;94.70;;;;;;4992134;28;20044;-85
2023/03/01 12:23:09;;;;;;;16.58;14.70;;;8.40;95.00;;;;;;5010136;28;20518;-85
2023/03/01 12:25:41;;;;;;;11.88;10.68;;;8.60;95.50;;;;;;4953965;28;20043;-86
2023/03/01 12:28:25;;;;;;;18.85;14.30;;;8.60;94.40;;;;;;4953883;28;20704;-84
2023/03/01 12:31:00;;;;;;;17.27;14.05;;;8.60;95.00;;;;;;4950294;28;20131;-85
2023/03/01 12:33:41;;;;;;;17.58;14.63;;;8.60;94.30;;;;;;4951696;28;20381;-85
2023/03/01 12:36:13;;;;;;;12.10;10.93;;;8.70;94.20;;;;;;4966160;28;20039;-85
2023/03/01 12:38:50;;;;;;;15.70;14.05;;;8.70;93.90;;;;;;4952811;28;20035;-86
2023/03/01 12:41:43;;;;;;;12.60;10.90;;;8.70;94.00;;;;;;4944420;28;20035;-85
2023/03/01 12:44:15;;;;;;;19.92;15.77;;;8.80;94.10;;;;;;4944937;28;20051;-81
2023/03/01 12:46:55;;;;;;;12.90;11.68;;;9.00;95.80;;;;;;4947155;28;20051;-86
2023/03/01 12:49:33;;;;;;;10.93;9.85;;;9.10;93.70;;;;;;4944695;28;20061;-85
2023/03/01 12:52:09;;;;;;;16.05;12.55;;;8.80;93.20;;;;;;4929158;29;20047;-86
2023/03/01 12:54:36;;;;;;;15.30;13.75;;;8.80;93.90;;;;;;4960965;28;20043;-86
2023/03/01 12:57:23;;;;;;;18.60;16.52;;;8.80;93.90;;;;;;4943937;28;20054;-85